Weather at Salisbury Ocean City Wicomico Regional Airport

Public forecast

Using degrees Fahrenheit for public forecast. Weather courtesy of forecast.io.

Current aviation weather report (METAR) for Salisbury Ocean City Wicomico Regional Airport

Retrieved 2021/01/28 06:54 UTC (54 minutes ago):

KSBY 280654Z AUTO 01/M06 A3004 RMK AO2 SLPNO T00061061 PWINO FZRANO

Aviation forecast (TAF) for Salisbury Ocean City Wicomico Regional Airport

Retrieved 2021/01/28 06:36 UTC (1 hour ago):

TAF KSBY 280533Z 2806/2906 01006KT P6SM BKN120 FM280800 36009KT P6SM BKN060 FM281000 34013G21KT P6SM OVC040 FM281400 33019G31KT P6SM BKN070 FM281700 33020G31KT P6SM SCT080